sensor_id;sensor_type;location;lat;lon;timestamp;pressure;altitude;pressure_sealevel;temperature;humidity
77325;BME280;66387;53.440;10.390;2024-02-15T00:00:00;100788.22;;;9.93;100.00
77325;BME280;66387;53.440;10.390;2024-02-15T00:02:25;100789.94;;;9.97;100.00
77325;BME280;66387;53.440;10.390;2024-02-15T00:04:50;100788.22;;;9.96;100.00
77325;BME280;66387;53.440;10.390;2024-02-15T00:07:15;100786.47;;;9.95;100.00
77325;BME280;66387;53.440;10.390;2024-02-15T00:09:41;100791.66;;;9.95;100.00
77325;BME280;66387;53.440;10.390;2024-02-15T00:12:06;100789.06;;;9.97;100.00
77325;BME280;66387;53.440;10.390;2024-02-15T00:14:32;100793.38;;;9.96;100.00
77325;BME280;66387;53.440;10.390;2024-02-15T00:16:58;100791.66;;;9.95;100.00
77325;BME280;66387;53.440;10.390;2024-02-15T00:19:23;100797.72;;;9.97;100.00
77325;BME280;66387;53.440;10.390;2024-02-15T00:21:49;100795.09;;;10.00;100.00
77325;BME280;66387;53.440;10.390;2024-02-15T00:24:14;100795.13;;;9.97;100.00
77325;BME280;66387;53.440;10.390;2024-02-15T00:26:40;100798.56;;;9.96;100.00
77325;BME280;66387;53.440;10.390;2024-02-15T00:29:07;100798.56;;;9.96;100.00
77325;BME280;66387;53.440;10.390;2024-02-15T00:31:33;100791.66;;;9.95;100.00
77325;BME280;66387;53.440;10.390;2024-02-15T00:33:58;100793.38;;;9.96;100.00
77325;BME280;66387;53.440;10.390;2024-02-15T00:36:24;100791.66;;;9.95;100.00
77325;BME280;66387;53.440;10.390;2024-02-15T00:38:49;100795.13;;;9.96;100.00
77325;BME280;66387;53.440;10.390;2024-02-15T00:41:14;100789.09;;;9.94;100.00
77325;BME280;66387;53.440;10.390;2024-02-15T00:43:40;100788.22;;;9.96;100.00
77325;BME280;66387;53.440;10.390;2024-02-15T00:46:05;100785.59;;;9.99;100.00
77325;BME280;66387;53.440;10.390;2024-02-15T00:48:30;100781.25;;;10.01;100.00
77325;BME280;66387;53.440;10.390;2024-02-15T00:50:56;100789.03;;;10.01;100.00
77325;BME280;66387;53.440;10.390;2024-02-15T00:53:21;100795.94;;;10.02;100.00
77325;BME280;66387;53.440;10.390;2024-02-15T00:55:47;100793.34;;;10.02;100.00
77325;BME280;66387;53.440;10.390;2024-02-15T00:58:12;100782.09;;;10.05;100.00
77325;BME280;66387;53.440;10.390;2024-02-15T01:00:37;100798.53;;;10.05;100.00
77325;BME280;66387;53.440;10.390;2024-02-15T01:03:03;100798.53;;;10.05;100.00
77325;BME280;66387;53.440;10.390;2024-02-15T01:05:29;100795.03;;;10.06;100.00
77325;BME280;66387;53.440;10.390;2024-02-15T01:07:55;100800.22;;;10.06;100.00
77325;BME280;66387;53.440;10.390;2024-02-15T01:10:21;100801.97;;;10.04;100.00
77325;BME280;66387;53.440;10.390;2024-02-15T01:12:46;100801.13;;;10.05;100.00
77325;BME280;66387;53.440;10.390;2024-02-15T01:15:11;100799.34;;;10.06;100.00
77325;BME280;66387;53.440;10.390;2024-02-15T01:17:37;100805.41;;;10.08;100.00
77325;BME280;66387;53.440;10.390;2024-02-15T01:20:02;100799.34;;;10.09;100.00
77325;BME280;66387;53.440;10.390;2024-02-15T01:22:27;100807.13;;;10.07;100.00
77325;BME280;66387;53.440;10.390;2024-02-15T01:24:53;100801.94;;;10.09;100.00
77325;BME280;66387;53.440;10.390;2024-02-15T01:27:19;100801.94;;;10.07;100.00
77325;BME280;66387;53.440;10.390;2024-02-15T01:29:44;100801.91;;;10.10;100.00
77325;BME280;66387;53.440;10.390;2024-02-15T01:32:09;100799.31;;;10.12;100.00
77325;BME280;66387;53.440;10.390;2024-02-15T01:34:35;100798.50;;;10.08;100.00
77325;BME280;66387;53.440;10.390;2024-02-15T01:37:00;100801.91;;;10.10;100.00
77325;BME280;66387;53.440;10.390;2024-02-15T01:39:25;100804.53;;;10.07;100.00
77325;BME280;66387;53.440;10.390;2024-02-15T01:41:50;100801.91;;;10.10;100.00
77325;BME280;66387;53.440;10.390;2024-02-15T01:44:18;100788.09;;;10.14;100.00
77325;BME280;66387;53.440;10.390;2024-02-15T01:46:45;100786.31;;;10.16;100.00
77325;BME280;66387;53.440;10.390;2024-02-15T01:49:13;100785.50;;;10.14;100.00
77325;BME280;66387;53.440;10.390;2024-02-15T01:51:39;100789.81;;;10.15;100.00
77325;BME280;66387;53.440;10.390;2024-02-15T01:54:09;100786.31;;;10.13;100.00
77325;BME280;66387;53.440;10.390;2024-02-15T01:56:34;100794.09;;;10.18;100.00
77325;BME280;66387;53.440;10.390;2024-02-15T01:59:00;100794.09;;;10.18;100.00
77325;BME280;66387;53.440;10.390;2024-02-15T02:01:27;100790.66;;;10.13;100.00
77325;BME280;66387;53.440;10.390;2024-02-15T02:03:52;100786.34;;;10.15;100.00
77325;BME280;66387;53.440;10.390;2024-02-15T02:06:18;100788.06;;;10.17;100.00
77325;BME280;66387;53.440;10.390;2024-02-15T02:08:44;100786.31;;;10.16;100.00
77325;BME280;66387;53.440;10.390;2024-02-15T02:11:09;100785.47;;;10.17;100.00
77325;BME280;66387;53.440;10.390;2024-02-15T02:13:35;100788.03;;;10.20;100.00
77325;BME280;66387;53.440;10.390;2024-02-15T02:16:00;100788.91;;;10.18;100.00
77325;BME280;66387;53.440;10.390;2024-02-15T02:18:25;100786.25;;;10.24;100.00
77325;BME280;66387;53.440;10.390;2024-02-15T02:20:51;100785.41;;;10.25;100.00
77325;BME280;66387;53.440;10.390;2024-02-15T02:23:17;100789.69;;;10.27;100.00
77325;BME280;66387;53.440;10.390;2024-02-15T02:25:45;100781.03;;;10.28;100.00
77325;BME280;66387;53.440;10.390;2024-02-15T02:28:13;100787.97;;;10.29;100.00
77325;BME280;66387;53.440;10.390;2024-02-15T02:30:39;100781.88;;;10.32;100.00
77325;BME280;66387;53.440;10.390;2024-02-15T02:33:10;100788.78;;;10.31;100.00
77325;BME280;66387;53.440;10.390;2024-02-15T02:35:36;100786.19;;;10.31;100.00
77325;BME280;66387;53.440;10.390;2024-02-15T02:38:02;100782.75;;;10.29;100.00
77325;BME280;66387;53.440;10.390;2024-02-15T02:40:27;100788.78;;;10.31;100.00
77325;BME280;66387;53.440;10.390;2024-02-15T02:42:54;100782.75;;;10.29;100.00
77325;BME280;66387;53.440;10.390;2024-02-15T02:45:25;100788.81;;;10.28;100.00
77325;BME280;66387;53.440;10.390;2024-02-15T02:47:50;100796.59;;;10.30;100.00
77325;BME280;66387;53.440;10.390;2024-02-15T02:50:16;100789.69;;;10.29;100.00
77325;BME280;66387;53.440;10.390;2024-02-15T02:52:42;100789.69;;;10.30;100.00
77325;BME280;66387;53.440;10.390;2024-02-15T02:55:08;100787.06;;;10.32;100.00
77325;BME280;66387;53.440;10.390;2024-02-15T02:57:35;100787.91;;;10.32;100.00
77325;BME280;66387;53.440;10.390;2024-02-15T03:00:06;100791.38;;;10.35;100.00
77325;BME280;66387;53.440;10.390;2024-02-15T03:02:40;100784.47;;;10.33;100.00
77325;BME280;66387;53.440;10.390;2024-02-15T03:05:06;100790.53;;;10.32;100.00
77325;BME280;66387;53.440;10.390;2024-02-15T03:07:33;100784.47;;;10.32;100.00
77325;BME280;66387;53.440;10.390;2024-02-15T03:10:00;100785.31;;;10.34;100.00
77325;BME280;66387;53.440;10.390;2024-02-15T03:12:25;100784.44;;;10.35;100.00
77325;BME280;66387;53.440;10.390;2024-02-15T03:14:52;100779.28;;;10.33;100.00
77325;BME280;66387;53.440;10.390;2024-02-15T03:17:17;100780.09;;;10.36;100.00
77325;BME280;66387;53.440;10.390;2024-02-15T03:19:42;100785.28;;;10.36;100.00
77325;BME280;66387;53.440;10.390;2024-02-15T03:22:07;100787.88;;;10.36;100.00
77325;BME280;66387;53.440;10.390;2024-02-15T03:24:33;100782.69;;;10.36;100.00
77325;BME280;66387;53.440;10.390;2024-02-15T03:26:58;100786.16;;;10.38;100.00
77325;BME280;66387;53.440;10.390;2024-02-15T03:29:23;100793.03;;;10.39;100.00
77325;BME280;66387;53.440;10.390;2024-02-15T03:31:50;100791.31;;;10.41;100.00
77325;BME280;66387;53.440;10.390;2024-02-15T03:34:18;100793.88;;;10.42;100.00
77325;BME280;66387;53.440;10.390;2024-02-15T03:36:46;100799.06;;;10.42;100.00
77325;BME280;66387;53.440;10.390;2024-02-15T03:39:13;100802.56;;;10.40;100.00
77325;BME280;66387;53.440;10.390;2024-02-15T03:41:38;100798.22;;;10.39;100.00
77325;BME280;66387;53.440;10.390;2024-02-15T03:44:03;100802.59;;;10.37;100.00
77325;BME280;66387;53.440;10.390;2024-02-15T03:46:29;100805.16;;;10.40;100.00
77325;BME280;66387;53.440;10.390;2024-02-15T03:48:54;100799.97;;;10.40;100.00
77325;BME280;66387;53.440;10.390;2024-02-15T03:51:22;100798.22;;;10.40;100.00
77325;BME280;66387;53.440;10.390;2024-02-15T03:53:49;100806.03;;;10.39;100.00
77325;BME280;66387;53.440;10.390;2024-02-15T03:56:17;100801.72;;;10.38;100.00
77325;BME280;66387;53.440;10.390;2024-02-15T03:58:42;100805.16;;;10.40;100.00
77325;BME280;66387;53.440;10.390;2024-02-15T04:01:07;100812.94;;;10.41;100.00
77325;BME280;66387;53.440;10.390;2024-02-15T04:03:34;100816.38;;;10.45;100.00
77325;BME280;66387;53.440;10.390;2024-02-15T04:06:00;100815.50;;;10.43;100.00
77325;BME280;66387;53.440;10.390;2024-02-15T04:08:25;100825.88;;;10.43;100.00
77325;BME280;66387;53.440;10.390;2024-02-15T04:10:51;100826.78;;;10.42;100.00
77325;BME280;66387;53.440;10.390;2024-02-15T04:13:16;100826.75;;;10.43;100.00
77325;BME280;66387;53.440;10.390;2024-02-15T04:15:42;100830.22;;;10.45;100.00
77325;BME280;66387;53.440;10.390;2024-02-15T04:18:08;100816.38;;;10.43;100.00
77325;BME280;66387;53.440;10.390;2024-02-15T04:20:36;100814.63;;;10.42;100.00
77325;BME280;66387;53.440;10.390;2024-02-15T04:23:01;100820.69;;;10.43;100.00
77325;BME280;66387;53.440;10.390;2024-02-15T04:25:26;100818.97;;;10.43;100.00
77325;BME280;66387;53.440;10.390;2024-02-15T04:27:53;100807.72;;;10.44;100.00
77325;BME280;66387;53.440;10.390;2024-02-15T04:30:18;100813.78;;;10.45;100.00
77325;BME280;66387;53.440;10.390;2024-02-15T04:32:44;100823.25;;;10.47;100.00
77325;BME280;66387;53.440;10.390;2024-02-15T04:35:10;100824.97;;;10.47;100.00
77325;BME280;66387;53.440;10.390;2024-02-15T04:37:35;100815.47;;;10.49;100.00
77325;BME280;66387;53.440;10.390;2024-02-15T04:40:02;100807.69;;;10.49;100.00
77325;BME280;66387;53.440;10.390;2024-02-15T04:42:34;100827.53;;;10.51;100.00
77325;BME280;66387;53.440;10.390;2024-02-15T04:45:02;100824.94;;;10.51;100.00
77325;BME280;66387;53.440;10.390;2024-02-15T04:47:28;100826.69;;;10.49;100.00
77325;BME280;66387;53.440;10.390;2024-02-15T04:49:55;100832.72;;;10.50;100.00
77325;BME280;66387;53.440;10.390;2024-02-15T04:52:20;100841.34;;;10.53;100.00
77325;BME280;66387;53.440;10.390;2024-02-15T04:54:48;100832.72;;;10.53;100.00
77325;BME280;66387;53.440;10.390;2024-02-15T04:57:14;100838.78;;;10.50;100.00
77325;BME280;66387;53.440;10.390;2024-02-15T04:59:39;100841.41;;;10.49;100.00
77325;BME280;66387;53.440;10.390;2024-02-15T05:02:04;100850.91;;;10.53;100.00
77325;BME280;66387;53.440;10.390;2024-02-15T05:04:30;100848.31;;;10.50;100.00
77325;BME280;66387;53.440;10.390;2024-02-15T05:06:55;100853.53;;;10.48;100.00
77325;BME280;66387;53.440;10.390;2024-02-15T05:09:21;100847.47;;;10.48;100.00
77325;BME280;66387;53.440;10.390;2024-02-15T05:11:48;100856.13;;;10.48;100.00
77325;BME280;66387;53.440;10.390;2024-02-15T05:14:16;100849.22;;;10.49;100.00
77325;BME280;66387;53.440;10.390;2024-02-15T05:16:46;100850.94;;;10.48;100.00
77325;BME280;66387;53.440;10.390;2024-02-15T05:19:13;100844.00;;;10.47;100.00
77325;BME280;66387;53.440;10.390;2024-02-15T05:21:38;100852.63;;;10.49;100.00
77325;BME280;66387;53.440;10.390;2024-02-15T05:24:05;100859.59;;;10.49;100.00
77325;BME280;66387;53.440;10.390;2024-02-15T05:26:30;100854.41;;;10.49;100.00
77325;BME280;66387;53.440;10.390;2024-02-15T05:28:56;100852.63;;;10.52;100.00
77325;BME280;66387;53.440;10.390;2024-02-15T05:31:21;100854.41;;;10.49;100.00
77325;BME280;66387;53.440;10.390;2024-02-15T05:33:50;100848.34;;;10.48;100.00
77325;BME280;66387;53.440;10.390;2024-02-15T05:36:17;100850.06;;;10.48;100.00
77325;BME280;66387;53.440;10.390;2024-02-15T05:38:47;100847.44;;;10.51;100.00
77325;BME280;66387;53.440;10.390;2024-02-15T05:41:13;100845.75;;;10.48;100.00
77325;BME280;66387;53.440;10.390;2024-02-15T05:43:39;100849.22;;;10.49;100.00
77325;BME280;66387;53.440;10.390;2024-02-15T05:46:06;100842.25;;;10.49;100.00
77325;BME280;66387;53.440;10.390;2024-02-15T05:48:35;100846.59;;;10.47;100.00
77325;BME280;66387;53.440;10.390;2024-02-15T05:51:02;100844.00;;;10.49;100.00
77325;BME280;66387;53.440;10.390;2024-02-15T05:53:28;100831.91;;;10.46;100.00
77325;BME280;66387;53.440;10.390;2024-02-15T05:55:55;100840.53;;;10.51;100.00
77325;BME280;66387;53.440;10.390;2024-02-15T05:58:20;100836.22;;;10.49;100.00
77325;BME280;66387;53.440;10.390;2024-02-15T06:00:46;100843.16;;;10.48;100.00
77325;BME280;66387;53.440;10.390;2024-02-15T06:03:14;100843.13;;;10.51;100.00
77325;BME280;66387;53.440;10.390;2024-02-15T06:05:40;100833.59;;;10.52;100.00
77325;BME280;66387;53.440;10.390;2024-02-15T06:08:06;100843.13;;;10.53;100.00
77325;BME280;66387;53.440;10.390;2024-02-15T06:10:31;100843.94;;;10.55;100.00
77325;BME280;66387;53.440;10.390;2024-02-15T06:12:57;100844.81;;;10.54;100.00
77325;BME280;66387;53.440;10.390;2024-02-15T06:15:25;100847.41;;;10.54;100.00
77325;BME280;66387;53.440;10.390;2024-02-15T06:17:52;100848.31;;;10.53;100.00
77325;BME280;66387;53.440;10.390;2024-02-15T06:20:17;100843.97;;;10.52;100.00
77325;BME280;66387;53.440;10.390;2024-02-15T06:22:43;100842.25;;;10.52;100.00
77325;BME280;66387;53.440;10.390;2024-02-15T06:25:09;100850.03;;;10.51;100.00
77325;BME280;66387;53.440;10.390;2024-02-15T06:27:36;100845.72;;;10.53;100.00
77325;BME280;66387;53.440;10.390;2024-02-15T06:30:09;100857.78;;;10.54;100.00
77325;BME280;66387;53.440;10.390;2024-02-15T06:32:53;100859.50;;;10.58;100.00
77325;BME280;66387;53.440;10.390;2024-02-15T06:35:37;100857.78;;;10.54;100.00
77325;BME280;66387;53.440;10.390;2024-02-15T06:38:21;100866.38;;;10.62;100.00
77325;BME280;66387;53.440;10.390;2024-02-15T06:41:05;100864.69;;;10.58;100.00
77325;BME280;66387;53.440;10.390;2024-02-15T06:43:30;100857.78;;;10.55;100.00
77325;BME280;66387;53.440;10.390;2024-02-15T06:45:55;100857.75;;;10.57;100.00
77325;BME280;66387;53.440;10.390;2024-02-15T06:48:20;100856.06;;;10.54;100.00
77325;BME280;66387;53.440;10.390;2024-02-15T06:50:49;100859.53;;;10.55;100.00
77325;BME280;66387;53.440;10.390;2024-02-15T06:53:14;100862.13;;;10.55;100.00
77325;BME280;66387;53.440;10.390;2024-02-15T06:55:40;100861.25;;;10.54;100.00
77325;BME280;66387;53.440;10.390;2024-02-15T06:58:05;100859.53;;;10.56;100.00
77325;BME280;66387;53.440;10.390;2024-02-15T07:00:31;100863.81;;;10.59;100.00
77325;BME280;66387;53.440;10.390;2024-02-15T07:02:56;100864.69;;;10.58;100.00
77325;BME280;66387;53.440;10.390;2024-02-15T07:05:22;100862.94;;;10.58;100.00
77325;BME280;66387;53.440;10.390;2024-02-15T07:07:48;100860.38;;;10.54;100.00
77325;BME280;66387;53.440;10.390;2024-02-15T07:10:14;100865.56;;;10.54;100.00
77325;BME280;66387;53.440;10.390;2024-02-15T07:12:42;100857.81;;;10.52;100.00
77325;BME280;66387;53.440;10.390;2024-02-15T07:15:09;100858.69;;;10.53;100.00
77325;BME280;66387;53.440;10.390;2024-02-15T07:17:35;100867.31;;;10.53;100.00
77325;BME280;66387;53.440;10.390;2024-02-15T07:20:02;100857.75;;;10.57;100.00
77325;BME280;66387;53.440;10.390;2024-02-15T07:22:30;100859.50;;;10.59;100.00
77325;BME280;66387;53.440;10.390;2024-02-15T07:24:56;100852.56;;;10.60;100.00
77325;BME280;66387;53.440;10.390;2024-02-15T07:27:21;100860.34;;;10.60;100.00
77325;BME280;66387;53.440;10.390;2024-02-15T07:29:50;100864.69;;;10.58;100.00
77325;BME280;66387;53.440;10.390;2024-02-15T07:32:15;100864.66;;;10.61;100.00
77325;BME280;66387;53.440;10.390;2024-02-15T07:34:42;100863.78;;;10.62;100.00
77325;BME280;66387;53.440;10.390;2024-02-15T07:37:09;100864.69;;;10.58;100.00
77325;BME280;66387;53.440;10.390;2024-02-15T07:39:34;100871.59;;;10.59;100.00
77325;BME280;66387;53.440;10.390;2024-02-15T07:42:01;100876.78;;;10.59;100.00
77325;BME280;66387;53.440;10.390;2024-02-15T07:44:30;100878.53;;;10.60;100.00
77325;BME280;66387;53.440;10.390;2024-02-15T07:46:58;100877.66;;;10.59;100.00
77325;BME280;66387;53.440;10.390;2024-02-15T07:49:25;100883.72;;;10.58;100.00
77325;BME280;66387;53.440;10.390;2024-02-15T07:51:51;100883.72;;;10.58;100.00
77325;BME280;66387;53.440;10.390;2024-02-15T07:54:21;100871.59;;;10.59;100.00
77325;BME280;66387;53.440;10.390;2024-02-15T07:56:47;100873.31;;;10.61;100.00
77325;BME280;66387;53.440;10.390;2024-02-15T07:59:13;100873.34;;;10.58;100.00
77325;BME280;66387;53.440;10.390;2024-02-15T08:01:40;100876.75;;;10.60;100.00
77325;BME280;66387;53.440;10.390;2024-02-15T08:04:06;100875.91;;;10.63;100.00
77325;BME280;66387;53.440;10.390;2024-02-15T08:06:33;100875.00;;;10.64;100.00
77325;BME280;66387;53.440;10.390;2024-02-15T08:08:58;100881.91;;;10.65;100.00
77325;BME280;66387;53.440;10.390;2024-02-15T08:11:24;100869.81;;;10.64;100.00
77325;BME280;66387;53.440;10.390;2024-02-15T08:13:52;100868.06;;;10.66;100.00
77325;BME280;66387;53.440;10.390;2024-02-15T08:16:19;100862.00;;;10.67;100.00
77325;BME280;66387;53.440;10.390;2024-02-15T08:18:47;100860.28;;;10.66;100.00
77325;BME280;66387;53.440;10.390;2024-02-15T08:21:13;100863.72;;;10.68;100.00
77325;BME280;66387;53.440;10.390;2024-02-15T08:23:38;100876.66;;;10.72;100.00
77325;BME280;66387;53.440;10.390;2024-02-15T08:26:04;100874.09;;;10.69;100.00
77325;BME280;66387;53.440;10.390;2024-02-15T08:28:29;100879.28;;;10.71;100.00
77325;BME280;66387;53.440;10.390;2024-02-15T08:30:55;100884.47;;;10.71;100.00
77325;BME280;66387;53.440;10.390;2024-02-15T08:33:22;100881.00;;;10.72;100.00
77325;BME280;66387;53.440;10.390;2024-02-15T08:35:48;100883.59;;;10.72;100.00
77325;BME280;66387;53.440;10.390;2024-02-15T08:38:14;100877.53;;;10.73;100.00
77325;BME280;66387;53.440;10.390;2024-02-15T08:40:39;100874.06;;;10.74;100.00
77325;BME280;66387;53.440;10.390;2024-02-15T08:43:04;100880.09;;;10.77;100.00
77325;BME280;66387;53.440;10.390;2024-02-15T08:45:29;100876.63;;;10.75;100.00
77325;BME280;66387;53.440;10.390;2024-02-15T08:47:55;100869.66;;;10.79;100.00
77325;BME280;66387;53.440;10.390;2024-02-15T08:50:20;100867.94;;;10.79;100.00
77325;BME280;66387;53.440;10.390;2024-02-15T08:52:48;100875.72;;;10.81;100.00
77325;BME280;66387;53.440;10.390;2024-02-15T08:55:13;100876.50;;;10.86;100.00
77325;BME280;66387;53.440;10.390;2024-02-15T08:57:40;100876.50;;;10.89;100.00
77325;BME280;66387;53.440;10.390;2024-02-15T09:00:06;100868.69;;;10.91;100.00
77325;BME280;66387;53.440;10.390;2024-02-15T09:02:44;100865.19;;;10.93;100.00
77325;BME280;66387;53.440;10.390;2024-02-15T09:05:10;100858.25;;;10.95;100.00
77325;BME280;66387;53.440;10.390;2024-02-15T09:07:35;100853.88;;;10.97;100.00
77325;BME280;66387;53.440;10.390;2024-02-15T09:10:05;100863.41;;;10.98;100.00
77325;BME280;66387;53.440;10.390;2024-02-15T09:12:32;100857.38;;;10.96;100.00
77325;BME280;66387;53.440;10.390;2024-02-15T09:14:57;100856.44;;;11.02;100.00
77325;BME280;66387;53.440;10.390;2024-02-15T09:17:23;100856.44;;;11.03;100.00
77325;BME280;66387;53.440;10.390;2024-02-15T09:19:48;100856.44;;;11.03;100.00
77325;BME280;66387;53.440;10.390;2024-02-15T09:22:14;100851.25;;;11.03;100.00
77325;BME280;66387;53.440;10.390;2024-02-15T09:24:40;100854.63;;;11.10;100.00
77325;BME280;66387;53.440;10.390;2024-02-15T09:27:05;100855.44;;;11.13;100.00
77325;BME280;66387;53.440;10.390;2024-02-15T09:29:31;100857.16;;;11.16;100.00
77325;BME280;66387;53.440;10.390;2024-02-15T09:31:58;100863.16;;;11.19;100.00
77325;BME280;66387;53.440;10.390;2024-02-15T09:34:23;100870.09;;;11.20;100.00
77325;BME280;66387;53.440;10.390;2024-02-15T09:36:49;100866.53;;;11.27;100.00
77325;BME280;66387;53.440;10.390;2024-02-15T09:39:14;100860.41;;;11.33;100.00
77325;BME280;66387;53.440;10.390;2024-02-15T09:41:39;100860.44;;;11.30;100.00
77325;BME280;66387;53.440;10.390;2024-02-15T09:44:05;100863.84;;;11.33;100.00
77325;BME280;66387;53.440;10.390;2024-02-15T09:46:35;100864.72;;;11.36;100.00
77325;BME280;66387;53.440;10.390;2024-02-15T09:49:01;100862.06;;;11.37;100.00
77325;BME280;66387;53.440;10.390;2024-02-15T09:51:29;100862.06;;;11.37;100.00
77325;BME280;66387;53.440;10.390;2024-02-15T09:53:59;100868.09;;;11.42;100.00
77325;BME280;66387;53.440;10.390;2024-02-15T09:56:26;100865.53;;;11.38;100.00
77325;BME280;66387;53.440;10.390;2024-02-15T09:58:51;100867.28;;;11.39;100.00
77325;BME280;66387;53.440;10.390;2024-02-15T10:01:19;100864.69;;;11.37;100.00
77325;BME280;66387;53.440;10.390;2024-02-15T10:03:49;100869.88;;;11.39;100.00
77325;BME280;66387;53.440;10.390;2024-02-15T10:06:15;100873.34;;;11.38;100.00
77325;BME280;66387;53.440;10.390;2024-02-15T10:08:43;100872.47;;;11.37;100.00
77325;BME280;66387;53.440;10.390;2024-02-15T10:11:09;100869.00;;;11.40;100.00
77325;BME280;66387;53.440;10.390;2024-02-15T10:13:35;100873.34;;;11.39;100.00
77325;BME280;66387;53.440;10.390;2024-02-15T10:16:14;100880.22;;;11.42;100.00
77325;BME280;66387;53.440;10.390;2024-02-15T10:18:39;100879.41;;;11.38;100.00
77325;BME280;66387;53.440;10.390;2024-02-15T10:21:04;100882.00;;;11.38;100.00
77325;BME280;66387;53.440;10.390;2024-02-15T10:23:30;100882.00;;;11.38;100.00
77325;BME280;66387;53.440;10.390;2024-02-15T10:25:55;100882.91;;;11.36;100.00
77325;BME280;66387;53.440;10.390;2024-02-15T10:28:21;100880.28;;;11.37;100.00
77325;BME280;66387;53.440;10.390;2024-02-15T10:30:51;100883.78;;;11.35;100.00
77325;BME280;66387;53.440;10.390;2024-02-15T10:33:28;100886.38;;;11.35;100.00
77325;BME280;66387;53.440;10.390;2024-02-15T10:36:06;100879.44;;;11.35;100.00
77325;BME280;66387;53.440;10.390;2024-02-15T10:38:33;100882.88;;;11.37;100.00
77325;BME280;66387;53.440;10.390;2024-02-15T10:41:06;100882.88;;;11.37;100.00
77325;BME280;66387;53.440;10.390;2024-02-15T10:43:35;100874.22;;;11.37;100.00
77325;BME280;66387;53.440;10.390;2024-02-15T10:46:03;100877.66;;;11.39;100.00
77325;BME280;66387;53.440;10.390;2024-02-15T10:48:28;100877.66;;;11.39;100.00
77325;BME280;66387;53.440;10.390;2024-02-15T10:50:56;100882.88;;;11.40;100.00
77325;BME280;66387;53.440;10.390;2024-02-15T10:56:12;100866.31;;;11.46;100.00
77325;BME280;66387;53.440;10.390;2024-02-15T10:58:49;100867.19;;;11.45;100.00
77325;BME280;66387;53.440;10.390;2024-02-15T11:01:17;100869.75;;;11.48;100.00
77325;BME280;66387;53.440;10.390;2024-02-15T11:03:59;100859.28;;;11.54;100.00
77325;BME280;66387;53.440;10.390;2024-02-15T11:06:30;100859.25;;;11.57;100.00
77325;BME280;66387;53.440;10.390;2024-02-15T11:08:55;100856.63;;;11.58;100.00
77325;BME280;66387;53.440;10.390;2024-02-15T11:11:21;100853.13;;;11.59;100.00
77325;BME280;66387;53.440;10.390;2024-02-15T11:13:47;100858.31;;;11.59;100.00
77325;BME280;66387;53.440;10.390;2024-02-15T11:16:52;100848.78;;;11.60;100.00
77325;BME280;66387;53.440;10.390;2024-02-15T11:22:01;100848.69;;;11.66;100.00
77325;BME280;66387;53.440;10.390;2024-02-15T11:24:34;100857.31;;;11.69;100.00
77325;BME280;66387;53.440;10.390;2024-02-15T11:27:03;100856.47;;;11.69;100.00
77325;BME280;66387;53.440;10.390;2024-02-15T11:35:07;100841.75;;;11.66;100.00
77325;BME280;66387;53.440;10.390;2024-02-15T11:40:12;100842.63;;;11.68;100.00
77325;BME280;66387;53.440;10.390;2024-02-15T11:42:38;100834.81;;;11.67;100.00
77325;BME280;66387;53.440;10.390;2024-02-15T11:45:06;100837.41;;;11.67;100.00
77325;BME280;66387;53.440;10.390;2024-02-15T11:47:32;100833.09;;;11.66;100.00
77325;BME280;66387;53.440;10.390;2024-02-15T11:49:59;100827.06;;;11.65;100.00
77325;BME280;66387;53.440;10.390;2024-02-15T11:52:25;100820.09;;;11.66;100.00
77325;BME280;66387;53.440;10.390;2024-02-15T11:54:50;100814.94;;;11.64;100.00
77325;BME280;66387;53.440;10.390;2024-02-15T11:57:15;100821.00;;;11.65;100.00
77325;BME280;66387;53.440;10.390;2024-02-15T11:59:51;100809.78;;;11.61;100.00
77325;BME280;66387;53.440;10.390;2024-02-15T12:02:39;100810.66;;;11.62;100.00
77325;BME280;66387;53.440;10.390;2024-02-15T12:05:23;100819.28;;;11.62;100.00
77325;BME280;66387;53.440;10.390;2024-02-15T12:08:07;100806.25;;;11.64;100.00
77325;BME280;66387;53.440;10.390;2024-02-15T12:11:14;100807.13;;;11.64;100.00
77325;BME280;66387;53.440;10.390;2024-02-15T12:13:57;100802.78;;;11.65;100.00
77325;BME280;66387;53.440;10.390;2024-02-15T12:16:41;100802.81;;;11.63;100.00
77325;BME280;66387;53.440;10.390;2024-02-15T12:19:36;100789.84;;;11.62;100.00
77325;BME280;66387;53.440;10.390;2024-02-15T12:22:02;100795.88;;;11.64;100.00
77325;BME280;66387;53.440;10.390;2024-02-15T12:24:29;100795.00;;;11.63;100.00
77325;BME280;66387;53.440;10.390;2024-02-15T12:27:01;100797.59;;;11.63;100.00
77325;BME280;66387;53.440;10.390;2024-02-15T12:29:28;100792.44;;;11.62;100.00
77325;BME280;66387;53.440;10.390;2024-02-15T12:31:54;100789.84;;;11.62;100.00
77325;BME280;66387;53.440;10.390;2024-02-15T12:34:20;100789.84;;;11.62;100.00
77325;BME280;66387;53.440;10.390;2024-02-15T12:36:45;100789.84;;;11.60;100.00
77325;BME280;66387;53.440;10.390;2024-02-15T12:39:11;100789.88;;;11.59;100.00
77325;BME280;66387;53.440;10.390;2024-02-15T12:41:41;100794.19;;;11.60;100.00
77325;BME280;66387;53.440;10.390;2024-02-15T12:44:16;100786.44;;;11.57;100.00